Time;durP1;ratioP1;P1;durP2;ratioP2;P2;SDS_P1;SDS_P2;PMS_P1;PMS_P2;Temp;Humidity;BMP_temperature;BMP_pressure;BME280_temperature;BME280_humidity;BME280_pressure;Samples;Min_cycle;Max_cycle;Signal;HPM_P1;HPM_P2
2022/03/08 00:00:59;;;;;;;15.68;7.53;;;;;;;-0.02;63.20;102303.31;5073085;28;20107;-90
2022/03/08 00:03:44;;;;;;;15.45;7.68;;;;;;;-0.02;63.15;102301.63;5073447;28;20552;-90
2022/03/08 00:06:13;;;;;;;15.18;7.13;;;;;;;-0.12;63.33;102288.31;5074129;28;20019;-90
2022/03/08 00:08:40;;;;;;;16.92;7.75;;;;;;;-0.11;62.75;102296.03;5073349;28;20530;-90
2022/03/08 00:11:07;;;;;;;16.42;7.70;;;;;;;-0.14;63.09;102293.31;5073730;28;20024;-89
2022/03/08 00:13:46;;;;;;;16.60;7.97;;;;;;;-0.22;63.51;102286.94;5077296;28;20415;-90
2022/03/08 00:16:11;;;;;;;15.98;7.50;;;;;;;-0.19;62.92;102287.13;5076075;28;20032;-89
2022/03/08 00:18:49;;;;;;;15.35;7.20;;;;;;;-0.27;63.01;102273.94;5074487;28;20024;-90
2022/03/08 00:21:30;;;;;;;16.90;7.50;;;;;;;-0.20;63.13;102291.31;5073921;28;20099;-90
2022/03/08 00:23:58;;;;;;;18.45;7.47;;;;;;;-0.26;63.07;102285.03;5073535;28;20028;-90
2022/03/08 00:26:23;;;;;;;14.43;7.28;;;;;;;-0.32;63.44;102281.38;5072859;28;20049;-90
2022/03/08 00:28:48;;;;;;;16.98;7.57;;;;;;;-0.27;62.97;102284.16;5073791;28;20037;-90
2022/03/08 00:31:26;;;;;;;17.95;7.40;;;;;;;-0.37;63.28;102275.13;5073810;28;20086;-90
2022/03/08 00:33:51;;;;;;;15.93;7.65;;;;;;;-0.33;62.93;102279.63;5073827;28;20055;-90
2022/03/08 00:36:17;;;;;;;15.70;7.22;;;;;;;-0.36;63.01;102276.03;5073245;28;20025;-90
2022/03/08 00:38:42;;;;;;;15.38;7.53;;;;;;;-0.38;63.03;102272.50;5073871;28;20021;-91
2022/03/08 00:41:08;;;;;;;16.25;7.22;;;;;;;-0.34;62.95;102282.09;5074108;28;20047;-90
2022/03/08 00:43:33;;;;;;;14.82;6.97;;;;;;;-0.37;62.83;102285.34;5073552;28;20365;-91
2022/03/08 00:45:59;;;;;;;13.23;6.00;;;;;;;-0.36;62.39;102276.03;5073310;28;20055;-90
2022/03/08 00:48:24;;;;;;;13.50;6.10;;;;;;;-0.33;62.09;102289.81;5072880;28;20458;-90
2022/03/08 00:50:49;;;;;;;14.70;6.15;;;;;;;-0.37;62.32;102279.38;5073584;28;20032;-90
2022/03/08 00:53:21;;;;;;;11.55;5.90;;;;;;;-0.39;62.15;102269.06;5074076;28;20024;-90
2022/03/08 00:55:46;;;;;;;10.52;5.30;;;;;;;-0.35;62.18;102273.53;5077300;28;20029;-90
2022/03/08 00:58:11;;;;;;;9.32;4.90;;;;;;;-0.32;62.15;102280.47;5075857;28;20028;-90
2022/03/08 01:00:39;;;;;;;11.48;5.22;;;;;;;-0.32;61.64;102283.03;5079779;28;20031;-90
2022/03/08 01:03:05;;;;;;;9.25;4.95;;;;;;;-0.34;61.82;102277.84;5083937;28;20384;-91
2022/03/08 01:05:31;;;;;;;11.10;5.07;;;;;;;-0.30;61.37;102280.56;5076468;28;20028;-90
2022/03/08 01:08:06;;;;;;;10.32;5.30;;;;;;;-0.25;61.04;102284.22;5077020;28;20020;-90
2022/03/08 01:10:32;;;;;;;12.30;5.70;;;;;;;-0.33;61.44;102273.63;5076526;28;20029;-90
2022/03/08 01:12:58;;;;;;;11.50;5.67;;;;;;;-0.25;61.38;102282.56;5076936;28;20021;-91
2022/03/08 01:15:24;;;;;;;10.15;5.65;;;;;;;-0.24;61.35;102278.34;5076781;28;20271;-90
2022/03/08 01:18:05;;;;;;;11.88;5.90;;;;;;;-0.24;61.21;102266.47;5076788;28;20034;-90
2022/03/08 01:20:31;;;;;;;10.75;5.40;;;;;;;-0.24;60.93;102263.91;5076633;28;20105;-90
2022/03/08 01:22:56;;;;;;;11.30;5.50;;;;;;;-0.24;60.71;102260.47;5076734;28;20052;-91
2022/03/08 01:25:28;;;;;;;11.77;5.90;;;;;;;-0.17;60.64;102268.53;5075916;28;20095;-90
2022/03/08 01:27:54;;;;;;;10.98;5.45;;;;;;;-0.19;60.49;102257.34;5076249;28;20037;-90
2022/03/08 01:30:21;;;;;;;11.70;5.95;;;;;;;-0.16;60.24;102264.28;5076726;28;20453;-90
2022/03/08 01:32:47;;;;;;;11.75;5.57;;;;;;;-0.17;60.18;102253.22;5076267;28;20029;-91
2022/03/08 01:35:14;;;;;;;13.47;5.97;;;;;;;-0.12;60.49;102263.66;5076747;28;20404;-91
2022/03/08 01:37:39;;;;;;;11.65;5.55;;;;;;;-0.11;60.08;102259.44;5076282;28;20303;-90
2022/03/08 01:40:07;;;;;;;10.80;5.50;;;;;;;-0.11;59.97;102255.22;5076369;28;20116;-90
2022/03/08 01:42:33;;;;;;;11.98;5.20;;;;;;;-0.07;59.75;102246.91;5075136;28;20024;-90
2022/03/08 01:44:58;;;;;;;9.57;5.13;;;;;;;-0.09;60.27;102242.50;5075930;28;20028;-90
2022/03/08 01:47:25;;;;;;;10.13;5.03;;;;;;;-0.13;60.32;102238.06;5075919;28;20021;-90
2022/03/08 01:49:52;;;;;;;9.35;4.90;;;;;;;-0.14;60.28;102238.88;5075801;28;20035;-90
2022/03/08 01:52:19;;;;;;;;;;;;;;;-0.16;59.91;102231.13;5076549;28;20514;-89
2022/03/08 01:54:45;;;;;;;9.63;4.90;;;;;;;-0.14;59.91;102229.53;5075783;28;19912;-91
2022/03/08 01:57:12;;;;;;;9.30;5.18;;;;;;;-0.16;60.36;102232.00;5075795;28;20389;-91
2022/03/08 01:59:37;;;;;;;9.15;4.80;;;;;;;-0.11;60.17;102233.94;5075633;28;20354;-90
2022/03/08 02:02:03;;;;;;;10.20;4.90;;;;;;;-0.15;60.18;102225.22;5076000;28;20021;-90
2022/03/08 02:04:28;;;;;;;8.13;4.55;;;;;;;-0.13;59.85;102223.63;5078285;28;20024;-90
2022/03/08 02:06:54;;;;;;;8.70;4.30;;;;;;;-0.16;60.06;102216.69;5098149;28;20027;-90
2022/03/08 02:09:19;;;;;;;9.57;4.45;;;;;;;-0.06;59.92;102222.25;5097779;28;20050;-90
2022/03/08 02:11:45;;;;;;;9.63;4.53;;;;;;;-0.17;60.13;102217.50;5098312;28;20013;-91
2022/03/08 02:14:10;;;;;;;7.72;4.38;;;;;;;-0.13;59.88;102213.41;5080950;28;20037;-90
2022/03/08 02:16:35;;;;;;;10.38;5.00;;;;;;;-0.19;59.81;102208.88;5077752;28;20036;-91
2022/03/08 02:19:01;;;;;;;8.55;4.63;;;;;;;-0.18;60.16;102209.78;5077709;28;20036;-90
2022/03/08 02:21:26;;;;;;;8.88;4.70;;;;;;;-0.17;60.29;102208.97;5075209;28;20037;-91
2022/03/08 02:23:52;;;;;;;9.00;5.10;;;;;;;-0.11;59.43;102206.72;5075539;28;20021;-91
2022/03/08 02:26:20;;;;;;;10.65;5.22;;;;;;;-0.12;59.73;102204.97;5075094;28;20093;-91
2022/03/08 02:28:46;;;;;;;9.13;5.05;;;;;;;-0.16;59.95;102206.50;5075099;28;20115;-91
2022/03/08 02:31:11;;;;;;;11.00;5.40;;;;;;;-0.17;59.80;102204.72;5075500;28;20151;-90
2022/03/08 02:33:36;;;;;;;7.60;4.45;;;;;;;-0.19;59.94;102197.81;5075211;28;20035;-91
2022/03/08 02:36:05;;;;;;;9.00;4.70;;;;;;;-0.19;60.12;102198.66;5075078;28;20016;-90
2022/03/08 02:38:30;;;;;;;10.48;5.28;;;;;;;-0.21;59.71;102184.09;5074545;28;20036;-90
2022/03/08 02:40:55;;;;;;;9.77;5.30;;;;;;;-0.20;60.06;102189.25;5075642;28;20487;-91
2022/03/08 02:43:20;;;;;;;8.25;4.50;;;;;;;-0.24;59.87;102187.38;5074665;28;20028;-91
2022/03/08 02:45:46;;;;;;;8.35;4.05;;;;;;;-0.27;60.03;102184.66;5075246;28;20028;-91
2022/03/08 02:48:11;;;;;;;8.95;4.72;;;;;;;-0.21;59.81;102190.06;5075174;28;20020;-91
2022/03/08 02:50:37;;;;;;;9.60;4.60;;;;;;;-0.25;59.95;102189.81;5074624;28;20447;-91
2022/03/08 02:53:03;;;;;;;8.07;4.47;;;;;;;-0.24;59.89;102189.03;5074864;28;20020;-91
2022/03/08 02:55:31;;;;;;;9.40;4.80;;;;;;;-0.32;60.23;102183.53;5074496;28;20103;-91
2022/03/08 02:57:57;;;;;;;9.63;4.47;;;;;;;-0.36;60.30;102176.53;5075082;28;20033;-91
2022/03/08 03:00:24;;;;;;;7.20;4.10;;;;;;;-0.37;60.53;102175.63;5077672;28;20031;-91
2022/03/08 03:02:51;;;;;;;8.35;4.18;;;;;;;-0.38;60.42;102173.03;5088890;28;20039;-91
2022/03/08 03:05:16;;;;;;;7.25;4.35;;;;;;;-0.40;60.57;102164.41;5080967;28;20047;-90
2022/03/08 03:07:42;;;;;;;7.07;4.28;;;;;;;-0.39;60.22;102158.50;5074662;28;20017;-91
2022/03/08 03:10:10;;;;;;;8.20;4.32;;;;;;;-0.41;60.54;102161.00;5074326;28;20063;-90
2022/03/08 03:12:35;;;;;;;8.25;4.43;;;;;;;-0.45;60.48;102151.44;5074403;28;20035;-91
2022/03/08 03:15:03;;;;;;;8.32;4.43;;;;;;;-0.40;60.37;102157.66;5075057;28;20025;-91
2022/03/08 03:17:28;;;;;;;7.82;4.13;;;;;;;-0.43;60.83;102152.38;5074433;28;20051;-91
2022/03/08 03:19:53;;;;;;;8.20;4.10;;;;;;;-0.42;60.48;102149.03;5078921;28;20024;-90
2022/03/08 03:22:18;;;;;;;7.85;4.28;;;;;;;-0.44;60.58;102139.53;5074539;28;20115;-90
2022/03/08 03:24:47;;;;;;;7.78;4.30;;;;;;;-0.43;60.25;102141.28;5074420;28;20473;-90
2022/03/08 03:27:16;;;;;;;7.82;4.65;;;;;;;-0.45;60.44;102133.56;5074263;28;20036;-90
2022/03/08 03:29:41;;;;;;;7.47;4.13;;;;;;;-0.48;60.61;102131.75;5074401;28;20028;-91
2022/03/08 03:32:07;;;;;;;7.80;4.38;;;;;;;-0.50;61.06;102132.44;5074885;28;20032;-90
2022/03/08 03:34:32;;;;;;;12.43;5.22;;;;;;;-0.54;60.97;102136.53;5074516;28;20532;-90
2022/03/08 03:36:58;;;;;;;10.90;5.18;;;;;;;-0.57;60.94;102127.84;5074410;28;20074;-90
2022/03/08 03:42:10;;;;;;;11.82;5.80;;;;;;;-0.64;60.96;102121.56;5074242;28;20032;-90
2022/03/08 03:44:35;;;;;;;13.25;6.15;;;;;;;-0.61;61.06;102134.47;5074110;28;20123;-90
2022/03/08 03:47:04;;;;;;;12.15;6.07;;;;;;;-0.65;61.33;102130.88;5074354;28;20048;-90
2022/03/08 03:49:29;;;;;;;13.93;6.47;;;;;;;-0.64;61.38;102130.09;5074241;28;20115;-90
2022/03/08 03:51:56;;;;;;;13.20;6.18;;;;;;;-0.67;61.30;102123.94;5074493;28;20059;-91
2022/03/08 03:54:22;;;;;;;11.88;5.80;;;;;;;-0.70;61.12;102124.66;5073936;28;20491;-90
2022/03/08 03:56:47;;;;;;;13.23;6.40;;;;;;;-0.63;60.80;102139.50;5074347;28;20029;-90
2022/03/08 03:59:13;;;;;;;11.55;6.15;;;;;;;-0.71;61.42;102130.56;5074260;28;20094;-90
2022/03/08 04:01:38;;;;;;;11.93;5.78;;;;;;;-0.72;61.17;102133.91;5074483;28;20036;-90
2022/03/08 04:04:04;;;;;;;12.40;6.00;;;;;;;-0.61;61.09;102139.56;5074662;28;20047;-90
2022/03/08 04:06:30;;;;;;;13.93;6.07;;;;;;;-0.68;61.89;102147.72;5074420;28;20032;-90
2022/03/08 04:08:55;;;;;;;14.90;7.07;;;;;;;-0.73;62.00;102134.69;5074546;28;20033;-91
2022/03/08 04:11:20;;;;;;;13.88;6.80;;;;;;;-0.70;61.33;102129.75;5091171;28;20008;-90
2022/03/08 04:13:45;;;;;;;12.07;6.20;;;;;;;-0.71;61.51;102127.13;5088093;28;20028;-90
2022/03/08 04:16:11;;;;;;;13.70;6.05;;;;;;;-0.75;62.27;102125.22;5081469;28;20024;-90
2022/03/08 04:18:37;;;;;;;14.05;6.80;;;;;;;-0.81;61.82;102121.56;5084602;28;20020;-91
2022/03/08 04:21:03;;;;;;;15.35;6.85;;;;;;;-0.78;62.08;102124.25;5085861;28;20371;-90
2022/03/08 04:23:28;;;;;;;12.48;6.40;;;;;;;-0.80;62.04;102123.31;5086701;28;20048;-90
2022/03/08 04:25:54;;;;;;;15.80;6.75;;;;;;;-0.83;61.92;102117.16;5075708;28;20060;-90
2022/03/08 04:28:34;;;;;;;13.70;7.00;;;;;;;-0.85;62.08;102114.56;5073860;28;20085;-90
2022/03/08 04:31:10;;;;;;;12.73;6.50;;;;;;;-0.76;61.67;102126.91;5074264;28;20031;-90
2022/03/08 04:33:38;;;;;;;15.43;7.20;;;;;;;-0.78;62.80;102125.94;5077215;28;20047;-90
2022/03/08 04:36:16;;;;;;;15.30;7.28;;;;;;;-0.84;62.45;102110.31;5092704;28;20011;-91
2022/03/08 04:38:47;;;;;;;13.18;6.28;;;;;;;-0.84;61.80;102111.22;5099908;28;20012;-91
2022/03/08 04:41:30;;;;;;;13.63;6.63;;;;;;;-0.83;61.99;102110.41;5099641;28;20005;-90
2022/03/08 04:43:56;;;;;;;15.07;6.68;;;;;;;-0.83;62.08;102114.63;5082332;28;20052;-91
2022/03/08 04:46:21;;;;;;;12.93;6.10;;;;;;;-0.75;61.53;102118.47;5079309;28;20031;-90
2022/03/08 04:48:46;;;;;;;12.43;5.95;;;;;;;-0.82;62.42;102122.38;5079851;28;20032;-91
2022/03/08 04:51:12;;;;;;;12.15;5.82;;;;;;;-0.85;62.58;102121.34;5078024;28;20032;-91
2022/03/08 04:54:01;;;;;;;13.13;6.32;;;;;;;-0.85;61.98;102114.56;5076922;28;20488;-91
2022/03/08 04:56:27;;;;;;;13.07;6.57;;;;;;;-0.84;61.94;102121.41;5077278;28;20032;-91
2022/03/08 04:58:53;;;;;;;11.07;5.45;;;;;;;-0.86;62.45;102119.56;5077957;28;20024;-89
2022/03/08 05:01:30;;;;;;;9.57;5.20;;;;;;;-0.91;62.29;102118.44;5089760;28;20114;-90
2022/03/08 05:03:56;;;;;;;9.18;4.97;;;;;;;-0.92;61.54;102112.50;5082201;28;20021;-91
2022/03/08 05:06:21;;;;;;;9.48;5.13;;;;;;;-0.92;62.05;102115.03;5076768;28;20514;-91
2022/03/08 05:08:52;;;;;;;8.35;4.75;;;;;;;-0.90;62.51;102118.50;5077294;28;20587;-91
2022/03/08 05:11:17;;;;;;;7.63;4.40;;;;;;;-0.99;62.08;102115.50;5076719;28;20082;-91
2022/03/08 05:13:42;;;;;;;8.85;4.40;;;;;;;-0.94;61.96;102121.72;5077135;28;20020;-91
2022/03/08 05:16:08;;;;;;;9.70;4.85;;;;;;;-1.00;62.68;102113.72;5076904;28;20486;-90
2022/03/08 05:18:35;;;;;;;9.20;4.70;;;;;;;-1.07;62.19;102102.38;5076740;28;20048;-90
2022/03/08 05:21:15;;;;;;;10.43;5.22;;;;;;;-1.05;62.43;102110.09;5076584;28;20127;-90
2022/03/08 05:23:41;;;;;;;8.02;4.50;;;;;;;-1.04;62.88;102112.69;5076658;28;20021;-91
2022/03/08 05:26:07;;;;;;;9.73;4.70;;;;;;;-1.03;62.37;102113.59;5076612;28;20044;-91
2022/03/08 05:28:39;;;;;;;9.45;4.97;;;;;;;-1.11;62.28;102097.91;5076794;28;20027;-91
2022/03/08 05:31:04;;;;;;;9.32;4.82;;;;;;;-1.09;63.32;102104.81;5076514;28;20060;-91
2022/03/08 05:33:29;;;;;;;11.32;5.40;;;;;;;-1.09;63.01;102103.97;5076368;28;20075;-91
2022/03/08 05:35:55;;;;;;;11.25;5.55;;;;;;;-1.12;63.23;102108.88;5076145;28;20016;-91
2022/03/08 05:38:20;;;;;;;10.95;5.30;;;;;;;-1.14;63.08;102105.38;5076296;28;20073;-92
2022/03/08 05:41:01;;;;;;;10.38;5.80;;;;;;;-1.22;62.88;102094.75;5076572;28;20024;-91
2022/03/08 05:43:26;;;;;;;14.60;6.20;;;;;;;-1.17;63.36;102105.19;5076305;28;20370;-90
2022/03/08 05:45:52;;;;;;;12.60;6.35;;;;;;;-1.14;62.40;102106.25;5079907;28;20061;-90
2022/03/08 05:48:17;;;;;;;13.38;6.20;;;;;;;-1.15;63.45;102103.63;5081256;28;20024;-91
2022/03/08 05:50:45;;;;;;;12.40;5.57;;;;;;;-1.26;63.51;102097.97;5077768;28;20027;-91
2022/03/08 05:53:11;;;;;;;11.10;5.53;;;;;;;-1.19;63.36;102092.38;5076129;28;20035;-91
2022/03/08 05:55:36;;;;;;;11.15;5.63;;;;;;;-1.20;63.58;102100.81;5075591;28;20025;-90
2022/03/08 05:58:01;;;;;;;10.63;5.28;;;;;;;-1.21;63.05;102099.06;5076138;28;20024;-91
2022/03/08 06:00:27;;;;;;;11.45;5.47;;;;;;;-1.26;62.99;102093.72;5076189;28;20035;-92
2022/03/08 06:03:05;;;;;;;12.02;5.45;;;;;;;-1.25;63.19;102086.97;5075570;28;20047;-86
2022/03/08 06:05:30;;;;;;;11.73;5.95;;;;;;;-1.25;63.44;102085.31;5075506;28;20035;-89
2022/03/08 06:08:05;;;;;;;14.35;6.65;;;;;;;-1.22;63.21;102081.16;5074679;28;20029;-90
2022/03/08 06:10:34;;;;;;;12.02;5.97;;;;;;;-1.10;63.53;102100.50;5075812;28;20531;-90
2022/03/08 06:12:59;;;;;;;13.77;6.53;;;;;;;-1.15;63.70;102098.53;5075358;28;20139;-89
2022/03/08 06:15:34;;;;;;;13.50;6.70;;;;;;;-1.10;63.13;102090.31;5075247;28;20553;-89
2022/03/08 06:17:59;;;;;;;14.18;6.50;;;;;;;-1.15;64.50;102095.97;5075434;28;20052;-90
2022/03/08 06:20:27;;;;;;;13.80;6.30;;;;;;;-1.15;63.84;102109.59;5074941;28;20074;-89
2022/03/08 06:22:54;;;;;;;14.95;6.60;;;;;;;-1.14;62.96;102102.81;5075268;28;20060;-89
2022/03/08 06:25:19;;;;;;;12.90;6.47;;;;;;;-1.18;64.36;102100.94;5075530;28;20044;-89
2022/03/08 06:27:44;;;;;;;13.30;6.38;;;;;;;-1.16;63.88;102097.66;5075134;28;20119;-90
2022/03/08 06:30:10;;;;;;;14.75;7.00;;;;;;;-1.06;63.26;102099.00;5075398;28;20025;-90
2022/03/08 06:32:36;;;;;;;13.30;6.65;;;;;;;-1.04;63.62;102097.41;5074990;28;20024;-90
2022/03/08 06:35:01;;;;;;;13.77;7.18;;;;;;;-1.07;64.16;102107.47;5075401;28;20021;-89
2022/03/08 06:37:26;;;;;;;14.98;7.00;;;;;;;-0.97;63.57;102106.25;5075142;28;20032;-91
2022/03/08 06:39:52;;;;;;;16.38;7.63;;;;;;;-0.94;63.77;102098.78;5075413;28;20032;-91
2022/03/08 06:42:18;;;;;;;15.90;8.13;;;;;;;-0.27;62.33;102097.00;5074149;28;20020;-90
2022/03/08 06:44:44;;;;;;;15.20;8.00;;;;;;;0.72;60.67;102094.88;5072823;28;20031;-91
2022/03/08 06:47:10;;;;;;;15.82;7.72;;;;;;;1.90;56.46;102089.66;5075246;28;20020;-91
2022/03/08 06:49:41;;;;;;;16.17;7.88;;;;;;;2.69;53.48;102095.25;5074383;28;20028;-90
2022/03/08 06:52:08;;;;;;;15.88;7.57;;;;;;;2.97;53.54;102093.72;5075059;28;20032;-90
2022/03/08 06:54:34;;;;;;;15.27;7.60;;;;;;;3.29;52.17;102103.38;5074159;28;20040;-91
2022/03/08 06:57:00;;;;;;;16.45;7.88;;;;;;;3.54;52.00;102090.56;5074737;28;20028;-90
2022/03/08 06:59:25;;;;;;;12.80;6.82;;;;;;;3.93;50.20;102088.41;5074692;28;20032;-91
2022/03/08 07:01:51;;;;;;;14.70;7.30;;;;;;;4.18;50.24;102102.91;5082822;28;20028;-91
2022/03/08 07:04:17;;;;;;;14.38;7.15;;;;;;;4.41;49.69;102095.03;5061451;28;20055;-88
2022/03/08 07:06:42;;;;;;;15.25;7.38;;;;;;;4.55;47.80;102098.91;5097069;28;20034;-94
2022/03/08 07:09:08;;;;;;;15.02;7.63;;;;;;;5.02;47.70;102101.09;5096174;28;20024;-90
2022/03/08 07:11:36;;;;;;;15.82;7.43;;;;;;;5.07;48.34;102094.34;5095592;28;20062;-88
2022/03/08 07:14:15;;;;;;;14.93;7.00;;;;;;;4.62;48.71;102093.09;5066902;28;20424;-85
2022/03/08 07:16:44;;;;;;;15.85;7.57;;;;;;;3.37;49.85;102094.28;5063145;28;20036;-85
2022/03/08 07:19:19;;;;;;;14.88;7.53;;;;;;;2.61;52.20;102087.28;5073922;28;20053;-90
2022/03/08 07:21:45;;;;;;;13.57;6.93;;;;;;;2.15;52.95;102106.00;5060710;28;20496;-90
2022/03/08 07:24:15;;;;;;;13.77;6.82;;;;;;;1.84;54.78;102108.22;5064194;28;20029;-90
2022/03/08 07:26:41;;;;;;;14.02;6.70;;;;;;;1.64;55.68;102120.19;5054206;28;20045;-90
2022/03/08 07:29:24;;;;;;;16.35;7.97;;;;;;;1.31;56.06;102111.91;5054831;28;20021;-89
2022/03/08 07:31:49;;;;;;;14.70;7.03;;;;;;;1.15;56.15;102111.28;5061286;28;20115;-90
2022/03/08 07:34:15;;;;;;;14.10;7.75;;;;;;;1.01;57.12;102114.91;5074668;28;20021;-91
2022/03/08 07:37:07;;;;;;;16.33;7.82;;;;;;;0.94;57.49;102118.84;5074300;28;20115;-90
2022/03/08 07:39:48;;;;;;;15.63;7.57;;;;;;;0.89;57.36;102105.00;5076532;28;20092;-93
2022/03/08 07:42:13;;;;;;;15.15;7.28;;;;;;;0.93;57.11;102101.78;5074950;28;20020;-92
2022/03/08 07:44:39;;;;;;;13.35;7.00;;;;;;;0.95;58.32;102109.53;5061550;28;20028;-93
2022/03/08 07:47:23;;;;;;;13.27;6.97;;;;;;;0.97;57.83;102097.66;5056079;28;20059;-93
2022/03/08 07:49:51;;;;;;;14.15;7.10;;;;;;;1.02;58.23;102096.19;5055366;28;20282;-91
2022/03/08 07:52:17;;;;;;;17.90;8.00;;;;;;;1.05;57.46;102084.41;5054092;28;20021;-88
2022/03/08 07:54:42;;;;;;;14.90;7.38;;;;;;;1.13;57.70;102100.09;5055000;28;20031;-88
2022/03/08 07:57:07;;;;;;;16.10;7.97;;;;;;;1.12;56.82;102093.22;5053988;28;20025;-90
2022/03/08 07:59:32;;;;;;;14.18;7.55;;;;;;;1.26;57.32;102105.75;5053630;28;20469;-88
2022/03/08 08:01:58;;;;;;;16.33;8.02;;;;;;;1.31;57.11;102109.38;5053596;28;20032;-89
2022/03/08 08:04:26;;;;;;;16.48;7.72;;;;;;;1.36;56.19;102105.34;5053756;28;20527;-88
2022/03/08 08:06:54;;;;;;;15.85;7.80;;;;;;;1.44;56.23;102116.75;5061267;28;20473;-90
2022/03/08 08:09:32;;;;;;;15.05;7.53;;;;;;;1.52;55.95;102109.41;5059174;28;20417;-90
2022/03/08 08:12:08;;;;;;;16.17;8.05;;;;;;;1.59;56.09;102102.88;5058041;28;20116;-87
2022/03/08 08:14:48;;;;;;;15.90;7.90;;;;;;;1.68;55.65;102091.34;5057473;28;20021;-89
2022/03/08 08:17:14;;;;;;;14.60;7.72;;;;;;;1.77;55.58;102095.09;5058032;28;20082;-89
2022/03/08 08:19:39;;;;;;;15.35;7.38;;;;;;;1.91;55.26;102103.34;5057621;28;20450;-89
2022/03/08 08:22:04;;;;;;;16.20;8.00;;;;;;;1.99;54.99;102096.81;5057495;28;20017;-89
2022/03/08 08:24:30;;;;;;;16.95;8.38;;;;;;;2.03;54.48;102102.97;5057353;28;20109;-90
2022/03/08 08:26:55;;;;;;;16.88;8.30;;;;;;;2.15;54.31;102101.75;5057247;28;20041;-89
2022/03/08 08:29:20;;;;;;;14.90;7.53;;;;;;;2.25;53.55;102100.41;5057368;28;20511;-89
2022/03/08 08:31:45;;;;;;;15.80;7.88;;;;;;;2.31;53.94;102099.78;5057706;28;20052;-90
2022/03/08 08:34:11;;;;;;;15.48;7.70;;;;;;;2.46;52.05;102105.50;5058295;28;20017;-90
2022/03/08 08:36:36;;;;;;;15.57;7.95;;;;;;;2.54;53.09;102102.34;5057325;28;20389;-90
2022/03/08 08:39:03;;;;;;;14.07;7.35;;;;;;;2.73;52.32;102111.63;5059927;28;20025;-90
2022/03/08 08:41:28;;;;;;;14.95;7.10;;;;;;;2.78;53.06;102110.13;5077320;28;20039;-89
2022/03/08 08:43:53;;;;;;;13.75;7.20;;;;;;;2.91;51.73;102112.34;5077413;28;20020;-90
2022/03/08 08:46:18;;;;;;;12.90;7.15;;;;;;;2.97;52.16;102104.00;5077211;28;20111;-89
2022/03/08 08:48:44;;;;;;;14.75;7.35;;;;;;;3.10;51.90;102100.16;5077429;28;20473;-89
2022/03/08 08:51:09;;;;;;;14.43;7.03;;;;;;;3.29;51.84;102095.66;5077461;28;20115;-88
2022/03/08 08:53:35;;;;;;;14.77;7.50;;;;;;;3.41;49.73;102090.97;5069385;28;20025;-90
2022/03/08 08:56:00;;;;;;;13.65;6.95;;;;;;;3.44;50.76;102093.66;5056819;28;20021;-89
2022/03/08 08:58:25;;;;;;;14.40;7.07;;;;;;;3.55;49.49;102086.28;5060064;28;20077;-90
2022/03/08 09:00:51;;;;;;;12.93;7.03;;;;;;;3.63;49.89;102084.00;5061443;28;20021;-89
2022/03/08 09:03:16;;;;;;;14.07;7.05;;;;;;;3.76;49.58;102081.00;5056773;28;20021;-89
2022/03/08 09:05:43;;;;;;;13.75;7.22;;;;;;;3.89;48.75;102097.69;5057158;28;20108;-89
2022/03/08 09:08:08;;;;;;;;;;;;;;;4.01;48.60;102097.22;5057073;28;20041;-89
2022/03/08 09:10:33;;;;;;;12.63;6.87;;;;;;;4.07;48.98;102087.13;5056224;28;20352;-90
2022/03/08 09:12:59;;;;;;;16.13;7.43;;;;;;;4.28;47.51;102088.63;5056533;28;20553;-90
2022/03/08 09:15:24;;;;;;;13.15;6.97;;;;;;;4.27;47.00;102081.75;5056798;28;20025;-91
2022/03/08 09:17:50;;;;;;;14.25;7.25;;;;;;;4.37;47.77;102088.03;5055523;28;20029;-90
2022/03/08 09:20:15;;;;;;;14.45;7.03;;;;;;;4.45;48.41;102077.16;5056437;28;20027;-89
2022/03/08 09:22:41;;;;;;;11.40;6.70;;;;;;;4.69;47.72;102082.97;5056983;28;20043;-91
2022/03/08 09:25:08;;;;;;;14.43;7.15;;;;;;;4.73;46.68;102075.38;5056174;28;20021;-89
2022/03/08 09:27:34;;;;;;;15.48;7.38;;;;;;;4.80;46.09;102071.28;5056424;28;20044;-90
2022/03/08 09:30:08;;;;;;;13.80;6.80;;;;;;;4.86;45.57;102060.31;5056022;28;20100;-89
2022/03/08 09:32:46;;;;;;;13.02;7.00;;;;;;;4.88;45.31;102071.50;5056593;28;20029;-92
2022/03/08 09:35:12;;;;;;;12.02;6.70;;;;;;;4.93;46.31;102055.38;5087483;28;20100;-89
2022/03/08 09:37:37;;;;;;;13.35;6.80;;;;;;;5.12;46.71;102052.44;5097293;28;20020;-89
2022/03/08 09:40:04;;;;;;;13.57;7.05;;;;;;;5.23;44.97;102054.47;5096264;28;20054;-88
2022/03/08 09:42:31;;;;;;;14.68;6.95;;;;;;;5.46;45.02;102054.16;5076568;28;20031;-88
2022/03/08 09:44:56;;;;;;;12.40;6.43;;;;;;;5.43;44.51;102043.81;5076824;28;20043;-87
2022/03/08 09:47:37;;;;;;;12.57;6.63;;;;;;;5.62;43.24;102037.44;5075849;28;20016;-88
2022/03/08 09:50:20;;;;;;;12.23;6.55;;;;;;;5.56;44.25;102034.69;5072188;28;20032;-88
2022/03/08 09:52:46;;;;;;;12.57;6.50;;;;;;;5.81;44.35;102030.13;5071931;28;20017;-88
2022/03/08 09:55:21;;;;;;;11.50;6.60;;;;;;;5.85;44.01;102021.66;5095185;28;20024;-88
2022/03/08 09:57:56;;;;;;;12.13;6.22;;;;;;;6.02;43.72;102040.09;5078517;28;20039;-88
2022/03/08 10:00:23;;;;;;;12.80;6.20;;;;;;;6.11;43.84;102037.72;5062382;28;20071;-85
2022/03/08 10:02:50;;;;;;;;;;;;;;;6.05;42.03;102040.16;5074341;28;20103;-89
2022/03/08 10:05:20;;;;;;;12.93;6.70;;;;;;;6.10;42.49;102041.16;5074125;28;19973;-90
2022/03/08 10:08:10;;;;;;;11.35;6.15;;;;;;;6.23;41.87;102031.97;5075250;28;20024;-87
2022/03/08 10:10:58;;;;;;;12.45;6.88;;;;;;;6.59;40.90;102035.28;5075007;28;20043;-88
2022/03/08 10:13:29;;;;;;;11.27;6.07;;;;;;;6.37;42.26;102034.84;5074878;28;20423;-88
2022/03/08 10:16:05;;;;;;;12.23;6.30;;;;;;;6.54;42.71;102035.19;5075248;28;20025;-88
2022/03/08 10:18:39;;;;;;;11.93;5.90;;;;;;;6.67;41.73;102027.69;5074427;28;20025;-89
2022/03/08 10:21:24;;;;;;;13.25;6.45;;;;;;;6.73;41.55;102033.84;5079352;28;20031;-89
2022/03/08 10:23:49;;;;;;;10.60;5.97;;;;;;;6.99;39.19;102030.03;5075241;28;20104;-90
2022/03/08 10:26:15;;;;;;;11.50;5.90;;;;;;;6.87;40.23;102017.78;5073141;28;20128;-90
2022/03/08 10:28:45;;;;;;;9.93;5.82;;;;;;;7.03;39.68;102026.66;5074852;28;20025;-86
2022/03/08 10:31:15;;;;;;;11.05;6.00;;;;;;;7.03;40.14;102018.94;5073500;28;20052;-88
2022/03/08 10:33:40;;;;;;;11.10;6.13;;;;;;;7.03;39.19;102014.66;5073611;28;20082;-86
2022/03/08 10:36:26;;;;;;;12.03;6.30;;;;;;;7.07;38.76;102015.56;5073474;28;20032;-87
2022/03/08 10:39:12;;;;;;;10.70;6.03;;;;;;;7.18;40.22;102023.50;5074627;28;20020;-86
2022/03/08 10:41:52;;;;;;;11.47;5.83;;;;;;;7.17;39.49;102009.72;5073530;28;20306;-88
2022/03/08 10:44:34;;;;;;;11.13;5.78;;;;;;;7.30;40.88;102005.63;5053538;28;20775;-89
2022/03/08 10:47:01;;;;;;;10.40;5.97;;;;;;;7.40;40.22;102015.28;5053331;28;20480;-87
2022/03/08 10:49:26;;;;;;;;;;;;;;;7.61;40.10;102013.03;5055217;28;20104;-88
2022/03/08 10:52:00;;;;;;;10.63;5.80;;;;;;;7.67;40.10;102002.78;5054410;28;20054;-86
2022/03/08 10:54:25;;;;;;;10.57;6.10;;;;;;;7.73;40.11;102015.81;5055689;28;20061;-88
2022/03/08 10:56:50;;;;;;;9.93;5.60;;;;;;;7.86;39.72;102014.25;5074970;28;20141;-88
2022/03/08 10:59:17;;;;;;;11.53;5.57;;;;;;;7.89;39.17;102002.25;5075799;28;20117;-89
2022/03/08 11:01:43;;;;;;;10.02;5.45;;;;;;;7.96;39.54;101992.88;5073962;28;20109;-88
2022/03/08 11:04:21;;;;;;;11.07;6.00;;;;;;;8.01;39.26;101995.50;5074129;28;20063;-88
2022/03/08 11:06:50;;;;;;;11.52;6.32;;;;;;;8.21;38.85;101995.78;5073501;28;20377;-87
2022/03/08 11:09:19;;;;;;;12.20;6.15;;;;;;;8.15;38.56;101995.72;5073350;28;20032;-89
2022/03/08 11:11:44;;;;;;;11.38;6.10;;;;;;;8.24;39.25;101998.44;5074191;28;20423;-86
2022/03/08 11:14:14;;;;;;;10.87;5.93;;;;;;;8.28;38.58;101991.56;5074049;28;20031;-90
2022/03/08 11:16:44;;;;;;;11.80;6.63;;;;;;;8.39;37.02;101989.13;5073379;28;20021;-87
2022/03/08 11:19:26;;;;;;;11.98;6.18;;;;;;;8.42;38.00;101987.44;5073978;28;20099;-89
2022/03/08 11:21:52;;;;;;;10.43;6.40;;;;;;;8.45;37.94;101989.19;5073590;28;20033;-88
2022/03/08 11:24:19;;;;;;;11.65;6.03;;;;;;;8.59;37.07;101986.78;5072993;28;20052;-87
2022/03/08 11:26:44;;;;;;;;;;;;;;;8.53;37.71;101992.75;5073261;28;20485;-88
2022/03/08 11:29:11;;;;;;;11.43;5.93;;;;;;;8.56;36.80;101978.97;5072998;28;19916;-86
2022/03/08 11:31:37;;;;;;;;;;;;;;;8.63;37.19;101976.47;5073440;28;20036;-88